Flight Track Log - Related Links

Times and Time Zones

All times are in EDT time to prevent confusion due to time zone crossing. See the SWA3317 flight status page for this flight to view local times or setup timezone preferences in your user account.

Time Position Orientation Groundspeed Altitude Reporting Facility
EDT Latitude Longitude Course Direction KTS MPH feet Rate Location/Type
Fri 11:38:01 PM 32.7542 -117.2875 282° West 232 267 3,700  Level Los Angeles Center
Fri 11:39:02 PM 32.7094 -117.3306 219° Southwest 237 273 7,000 3,707 Climbing Los Angeles Center
Fri 11:40:04 PM 32.6519 -117.2517 131° Southeast 265 305 11,300 2,903 Climbing Los Angeles Center
Fri 11:41:06 PM 32.6381 -117.1481 99° East 311 358 13,000 2,419 Climbing Los Angeles Center
Fri 11:42:08 PM 32.6192 -117.0272 100° East 359 413 16,300 3,073 Climbing Los Angeles Center
Fri 11:43:09 PM 32.6175 -116.9031 91° East 376 433 19,300 2,585 Climbing Los Angeles Center
Fri 11:44:11 PM 32.6308 -116.7739 83° East 392 451 21,600 2,323 Climbing Los Angeles Center
Fri 11:45:13 PM 32.6447 -116.6353 83° East 425 489 24,100 2,565 Climbing Los Angeles Center
Fri 11:46:15 PM 32.6592 -116.4725 84° East 420 483 26,900 1,707 Climbing Los Angeles Center
Fri 11:47:16 PM 32.6719 -116.3344 84° East 428 493 27,600 1,024 Climbing Los Angeles Center
Fri 11:48:18 PM 32.6850 -116.2033 83° East 408 470 29,000 677 Climbing Los Angeles Center
Fri 11:49:20 PM 32.6978 -116.0706 83° East 409 471 29,000  Level Los Angeles Center
Fri 11:50:22 PM 32.7100 -115.9367 84° East 411 473 29,000  Level Los Angeles Center
Fri 11:51:23 PM 32.7256 -115.7750 83° East 412 474 29,000  Level Los Angeles Center
Fri 11:52:25 PM 32.7378 -115.6392 84° East 414 476 29,000 -48 Level Los Angeles Center
Fri 11:53:27 PM 32.7500 -115.5047 84° East 412 474 28,900  Descending Los Angeles Center
Fri 11:54:28 PM 32.7525 -115.3672 89° East 419 482 29,000 49 Climbing Los Angeles Center
Fri 11:55:30 PM 32.7581 -115.2286 87° East 420 483 29,000  Level Los Angeles Center
Fri 11:56:32 PM 32.7611 -115.0917 88° East 417 480 29,000  Level Los Angeles Center
Fri 11:57:33 PM 32.7647 -114.9542 88° East 418 481 29,000  Level Los Angeles Center
Fri 11:58:35 PM 32.7669 -114.7875 89° East 422 486 29,000  Level Los Angeles Center
Fri 11:59:36 PM 32.7686 -114.6464 89° East 426 490 29,000  Level Los Angeles Center
Sat 12:00:38 AM 32.7708 -114.5050 89° East 428 493 29,000  Level Los Angeles Center
Sat 12:01:40 AM 32.7739 -114.3631 88° East 432 497 29,000 -537 Level Los Angeles Center
Sat 12:02:41 AM 32.7769 -114.2192 89° East 435 501 27,900 -1,951 Descending Los Angeles Center
Sat 12:03:43 AM 32.7775 -114.0769 90° East 428 493 25,000 -2,175 Descending Los Angeles Center
Sat 12:04:01 AM 32.7758 -114.0392 93° East 428 493 25,000  Level Albuquerque Center
Sat 12:05:02 AM 32.7847 -113.9067 85° East 408 470 25,000  Level Albuquerque Center
Sat 12:06:03 AM 32.8089 -113.7506 80° East 400 460 25,000  Level Albuquerque Center
Sat 12:07:04 AM 32.8542 -113.6383 64° Northeast 383 441 25,000  Level Albuquerque Center
Sat 12:08:05 AM 32.9239 -113.5436 49° Northeast 378 435 25,000 -344 Level Albuquerque Center
Sat 12:09:06 AM 32.9947 -113.4483 48° Northeast 381 438 24,300 -1,475 Descending Albuquerque Center
Sat 12:10:07 AM 33.0653 -113.3533 48° Northeast 382 440 22,000 -1,180 Descending Albuquerque Center
Sat 12:11:08 AM 33.1311 -113.2614 49° Northeast 370 426 21,900 -1,279 Descending Albuquerque Center
Sat 12:12:09 AM 33.1994 -113.1706 48° Northeast 367 422 19,400 -2,410 Descending Albuquerque Center
Sat 12:13:10 AM 33.2631 -113.0822 49° Northeast 355 409 17,000 -1,230 Descending Albuquerque Center
Sat 12:14:11 AM 33.2769 -112.9756 81° East 336 387 16,900 -393 Descending Albuquerque Center
Sat 12:15:12 AM 33.2789 -112.8600 89° East 341 392 16,200 -492 Descending Albuquerque Center
Sat 12:16:13 AM 33.2808 -112.7533 89° East 330 380 15,900 -148 Descending Albuquerque Center
Sat 12:17:14 AM 33.2833 -112.6544 88° East 306 352 15,900 -787 Level Albuquerque Center
Sat 12:18:15 AM 33.2864 -112.5525 88° East 298 343 14,300 -1,623 Descending Albuquerque Center
Sat 12:19:16 AM 33.2892 -112.4586 88° East 285 328 12,600 -1,623 Descending Albuquerque Center
Sat 12:20:17 AM 33.2919 -112.3658 88° East 282 325 11,000 -885 Descending Albuquerque Center
Sat 12:21:18 AM 33.2981 -112.2700 86° East 289 333 10,800 -885 Descending Albuquerque Center
Sat 12:22:19 AM 33.3061 -112.1581 85° East 284 327 9,200 -934 Descending Albuquerque Center
Sat 12:23:20 AM 33.3147 -112.0761 83° East 254 292 8,900 -787 Descending Albuquerque Center
Sat 12:24:21 AM 33.3356 -111.9986 72° East 247 284 7,600 -984 Descending Albuquerque Center
Sat 12:25:22 AM 33.3475 -111.9278 79° East 215 247 6,900 -893 Descending Albuquerque Center
Sat 12:26:22 AM 33.3453 -111.8583 92° East 209 241 5,800 -1,240 Descending Albuquerque Center
Sat 12:27:23 AM 33.3833 -111.8225 38° Northeast 203 234 4,400 -1,328 Descending Albuquerque Center
Sat 12:28:24 AM 33.4258 -111.8400 341° North 200 230 3,100 -787 Descending Albuquerque Center
Sat 12:29:25 AM 33.4289 -111.9025 273° West 187 215 2,800 -590 Descending Albuquerque Center
Sat 12:30:26 AM 33.4294 -111.9508 271° West 150 173 1,900 -787 Descending Albuquerque Center
Sat 12:31:27 AM 33.4289 -111.9953 269° West 134 154 1,200 -689 Descending Albuquerque Center

Login

Don't have an account? Register now (free) for customized features, flight alerts, and more!